Las Vegas, Nevada
Current Conditions -  °F | °C
As of 1:56 AM on Saturday 25 Oct 2014 (Local Time) from KLAS Reporting Station
Clear Clear  
Wind Chill: 21°   Ceiling: Unl
Heat Index: 21°   Visibility: 10mi
Dew Point:   Wind: 9mph
Humidity: 32%   Direction: 210°SSW
Pressure: 29.99"   Gusts: NA
Location:  36.17°N, 115.13°W
Report Text: KLAS 250856Z 21008KT 10SM CLR 21/03 A2999 RMK AO2 SLP135 T02060033 50000
Loading
Personal Weather Stations






























Interactive Weather Map
Tropical Storm Tracking
New forecast layout! Learn more

10-Day Weather Forecast

Advertisements
Track Severe Weather on mobile